Time;durP1;ratioP1;P1;durP2;ratioP2;P2;SDS_P1;SDS_P2;PMS_P1;PMS_P2;Temp;Humidity;BMP_temperature;BMP_pressure;BME280_temperature;BME280_humidity;BME280_pressure;Samples;Min_cycle;Max_cycle;Signal;HPM_P1;HPM_P2
2023/11/02 00:00:29;;;;;;;2.10;1.33;;;8.60;99.90;;;;;;5077588;28;20025;-94
2023/11/02 00:02:59;;;;;;;2.60;1.83;;;8.50;99.90;;;;;;5068893;28;20022;-93
2023/11/02 00:05:53;;;;;;;1.92;1.65;;;8.50;99.90;;;;;;5094270;28;20079;-93
2023/11/02 00:08:19;;;;;;;3.17;2.28;;;8.50;99.90;;;;;;5077645;28;20028;-96
2023/11/02 00:10:46;;;;;;;3.35;3.05;;;8.50;99.90;;;;;;5073990;28;20474;-94
2023/11/02 00:13:26;;;;;;;2.72;2.22;;;8.40;99.90;;;;;;5075450;28;20052;-93
2023/11/02 00:15:53;;;;;;;;;;;8.40;99.90;;;;;;5075946;28;20043;-94
2023/11/02 00:18:19;;;;;;;5.50;2.25;;;8.40;99.90;;;;;;5075592;28;19909;-96
2023/11/02 00:20:54;;;;;;;3.78;1.60;;;8.50;99.90;;;;;;5093404;28;20033;-95
2023/11/02 00:23:39;;;;;;;3.40;2.25;;;8.40;99.90;;;;;;5095451;28;20008;-94
2023/11/02 00:26:05;;;;;;;3.90;2.10;;;8.30;99.90;;;;;;5095002;28;20004;-94
2023/11/02 00:28:31;;;;;;;2.33;1.83;;;8.30;99.90;;;;;;5074081;28;20102;-95
2023/11/02 00:30:59;;;;;;;2.47;1.55;;;8.30;99.90;;;;;;5082304;28;20032;-95
2023/11/02 00:33:26;;;;;;;;;;;8.30;99.90;;;;;;5073944;28;20028;-91
2023/11/02 00:35:53;;;;;;;3.58;2.00;;;8.30;99.90;;;;;;5098635;28;19911;-92
2023/11/02 00:38:25;;;;;;;4.50;3.10;;;8.30;99.90;;;;;;5080959;28;20016;-93
2023/11/02 00:40:57;;;;;;;2.92;2.08;;;8.30;99.90;;;;;;5080474;28;20059;-95
2023/11/02 00:43:24;;;;;;;3.50;1.38;;;8.30;99.90;;;;;;5069417;28;20040;-93
2023/11/02 00:45:51;;;;;;;2.50;2.05;;;8.20;99.90;;;;;;5068851;28;20017;-94
2023/11/02 00:48:23;;;;;;;2.58;1.50;;;8.20;99.90;;;;;;5083339;28;20032;-92
2023/11/02 00:51:04;;;;;;;5.00;1.73;;;8.20;99.90;;;;;;5081259;28;20008;-93
2023/11/02 00:53:29;;;;;;;;;;;8.20;99.90;;;;;;5077533;28;20025;-95
2023/11/02 00:55:55;;;;;;;3.78;1.95;;;8.20;99.90;;;;;;5060087;28;19927;-93
2023/11/02 00:58:28;;;;;;;3.30;2.30;;;8.20;99.90;;;;;;5083977;28;20016;-93
2023/11/02 01:00:54;;;;;;;2.65;1.50;;;8.20;99.90;;;;;;5097373;28;20000;-93
2023/11/02 01:03:21;;;;;;;4.22;1.58;;;8.20;99.90;;;;;;5094384;28;20012;-93
2023/11/02 01:05:50;;;;;;;2.78;1.70;;;8.20;99.90;;;;;;5093414;28;20013;-95
2023/11/02 01:08:17;;;;;;;1.60;1.25;;;8.20;99.90;;;;;;5067911;28;20040;-95
2023/11/02 01:10:43;;;;;;;1.63;1.40;;;8.20;99.90;;;;;;5076289;28;20021;-92
2023/11/02 01:13:14;;;;;;;1.77;1.50;;;8.20;99.90;;;;;;5096023;28;20016;-94
2023/11/02 01:16:01;;;;;;;2.35;1.77;;;8.20;99.90;;;;;;5096066;28;20041;-94
2023/11/02 01:18:30;;;;;;;2.25;1.63;;;8.20;99.90;;;;;;5078214;28;20064;-94
2023/11/02 01:21:05;;;;;;;2.33;1.42;;;8.30;99.90;;;;;;5065344;28;20044;-95
2023/11/02 01:23:35;;;;;;;1.88;1.38;;;8.30;99.90;;;;;;5099110;28;20104;-95
2023/11/02 01:26:04;;;;;;;2.05;1.52;;;8.30;99.90;;;;;;5098322;28;20084;-90
2023/11/02 01:28:54;;;;;;;1.75;1.65;;;8.30;99.90;;;;;;5094921;28;20028;-91
2023/11/02 01:31:21;;;;;;;3.08;2.00;;;8.30;99.90;;;;;;5090240;28;20013;-93
2023/11/02 01:33:53;;;;;;;;;;;8.30;99.90;;;;;;5070418;28;20028;-93
2023/11/02 01:36:36;;;;;;;3.28;2.97;;;8.30;99.90;;;;;;5071031;28;19912;-93
2023/11/02 01:39:12;;;;;;;1.77;1.45;;;8.30;99.90;;;;;;5071834;28;20044;-93
2023/11/02 01:41:45;;;;;;;2.38;1.10;;;8.30;99.90;;;;;;5095252;28;20044;-92
2023/11/02 01:44:28;;;;;;;2.78;1.58;;;8.30;99.90;;;;;;5078023;28;20028;-96
2023/11/02 01:47:16;;;;;;;2.45;1.77;;;8.40;99.90;;;;;;5067439;28;20032;-92
2023/11/02 01:49:57;;;;;;;3.05;1.38;;;8.40;99.90;;;;;;5086672;28;20021;-94
2023/11/02 01:52:32;;;;;;;1.83;1.20;;;8.40;99.90;;;;;;5080038;28;20028;-93
2023/11/02 01:55:29;;;;;;;2.58;1.63;;;8.50;99.90;;;;;;5080400;28;20021;-93
2023/11/02 01:58:18;;;;;;;2.58;1.30;;;8.50;99.90;;;;;;5095759;28;20115;-91
2023/11/02 02:00:59;;;;;;;2.60;1.00;;;8.50;99.90;;;;;;5075974;28;20009;-95
2023/11/02 02:03:30;;;;;;;1.45;1.35;;;8.50;99.90;;;;;;5077078;28;20028;-95
2023/11/02 02:06:07;;;;;;;1.98;1.30;;;8.50;99.90;;;;;;5086357;28;20008;-94
2023/11/02 02:08:55;;;;;;;1.00;0.77;;;8.50;99.90;;;;;;5075142;28;20096;-94
2023/11/02 02:11:33;;;;;;;1.70;1.08;;;8.50;99.90;;;;;;5083679;28;20024;-95
2023/11/02 02:14:20;;;;;;;1.33;1.20;;;8.60;99.90;;;;;;5069730;28;20043;-91
2023/11/02 02:16:59;;;;;;;1.75;0.70;;;8.60;99.90;;;;;;5095386;28;20032;-92
2023/11/02 02:19:37;;;;;;;2.67;1.42;;;8.70;99.90;;;;;;5078306;28;20101;-92
2023/11/02 02:22:09;;;;;;;1.15;0.73;;;8.70;99.90;;;;;;5073780;28;20043;-93
2023/11/02 02:25:06;;;;;;;2.58;1.15;;;8.80;99.90;;;;;;5074942;28;20011;-93
2023/11/02 02:28:03;;;;;;;0.90;0.90;;;8.80;99.90;;;;;;5065594;28;20045;-93
2023/11/02 02:30:39;;;;;;;2.45;1.20;;;8.80;99.90;;;;;;5095055;28;20020;-93
2023/11/02 02:33:11;;;;;;;1.65;0.85;;;8.90;99.90;;;;;;5067914;28;20119;-94
2023/11/02 02:35:49;;;;;;;1.20;0.90;;;8.90;99.90;;;;;;5095015;28;20005;-95
2023/11/02 02:38:19;;;;;;;3.53;1.45;;;8.90;99.90;;;;;;5078680;28;20009;-94
2023/11/02 02:40:56;;;;;;;2.50;0.98;;;9.00;99.90;;;;;;5095773;28;20044;-91
2023/11/02 02:43:23;;;;;;;2.08;1.88;;;9.00;99.90;;;;;;5078919;28;20081;-93
2023/11/02 02:45:50;;;;;;;2.40;1.05;;;9.10;99.90;;;;;;5078165;28;20036;-92
2023/11/02 02:48:17;;;;;;;1.02;0.93;;;9.10;99.90;;;;;;5097333;28;20048;-91
2023/11/02 02:50:44;;;;;;;;;;;9.10;99.90;;;;;;5096439;28;20115;-91
2023/11/02 02:53:13;;;;;;;1.33;1.10;;;9.10;99.90;;;;;;5097560;28;19896;-94
2023/11/02 02:55:43;;;;;;;3.78;1.60;;;9.20;99.90;;;;;;5095948;28;20030;-94
2023/11/02 02:58:13;;;;;;;1.85;1.45;;;9.20;99.90;;;;;;5067573;28;20004;-95
2023/11/02 03:00:41;;;;;;;0.80;0.80;;;9.30;99.90;;;;;;5077713;28;20016;-95
2023/11/02 03:03:07;;;;;;;3.42;1.50;;;9.20;99.90;;;;;;5095448;28;20064;-94
2023/11/02 03:05:42;;;;;;;3.28;1.13;;;9.30;99.90;;;;;;5086315;28;20033;-96
2023/11/02 03:08:27;;;;;;;2.13;0.70;;;9.30;99.90;;;;;;5088480;28;20103;-94
2023/11/02 03:10:53;;;;;;;2.95;1.00;;;9.40;99.90;;;;;;5092420;28;20017;-93
2023/11/02 03:13:21;;;;;;;1.42;0.70;;;9.50;99.90;;;;;;5060984;28;20017;-96
2023/11/02 03:18:33;;;;;;;0.88;0.85;;;9.50;99.90;;;;;;3592631;22;20097;-95
2023/11/02 03:20:59;;;;;;;1.17;1.08;;;9.50;99.90;;;;;;5099382;28;20035;-96
2023/11/02 03:23:43;;;;;;;2.35;0.90;;;9.50;99.90;;;;;;5099818;28;20020;-96
2023/11/02 03:26:32;;;;;;;1.40;1.02;;;9.50;99.90;;;;;;5099651;28;20057;-96
2023/11/02 03:29:12;;;;;;;1.83;0.80;;;9.50;99.90;;;;;;5108888;28;20054;-96
2023/11/02 03:31:53;;;;;;;1.30;1.20;;;9.50;99.90;;;;;;5109709;28;20100;-96
2023/11/02 03:34:34;;;;;;;2.35;1.83;;;9.50;99.90;;;;;;5092202;28;20016;-95
2023/11/02 03:37:11;;;;;;;1.30;1.20;;;9.50;99.90;;;;;;5114613;28;20032;-96
2023/11/02 03:40:05;;;;;;;1.80;1.30;;;9.40;99.90;;;;;;5112972;28;20042;-96
2023/11/02 03:42:36;;;;;;;1.35;1.25;;;9.50;99.90;;;;;;5112503;28;20027;-95
2023/11/02 03:45:26;;;;;;;1.10;1.00;;;9.50;99.90;;;;;;5106682;28;20024;-95
2023/11/02 03:48:11;;;;;;;2.83;0.90;;;9.50;99.90;;;;;;5074672;28;20028;-95
2023/11/02 03:51:24;;;;;;;1.23;1.02;;;9.50;99.90;;;;;;5109750;28;20031;-95
2023/11/02 03:54:00;;;;;;;1.08;0.93;;;9.50;99.90;;;;;;5077971;28;20043;-95
2023/11/02 03:56:44;;;;;;;1.95;1.13;;;9.50;99.90;;;;;;5087459;28;20379;-93
2023/11/02 03:59:19;;;;;;;2.00;1.30;;;9.50;99.90;;;;;;5100646;28;20031;-95
2023/11/02 04:02:07;;;;;;;0.88;0.80;;;9.60;99.90;;;;;;5080052;28;20040;-96
2023/11/02 04:04:47;;;;;;;1.92;1.15;;;9.60;99.90;;;;;;5114211;28;20064;-95
2023/11/02 04:07:22;;;;;;;1.02;0.90;;;9.60;99.90;;;;;;5092436;28;20028;-96
2023/11/02 04:10:06;;;;;;;1.98;0.85;;;9.60;99.90;;;;;;5097107;28;20052;-96
2023/11/02 04:12:42;;;;;;;1.67;0.88;;;9.70;99.90;;;;;;5087527;28;20033;-95
2023/11/02 04:15:09;;;;;;;1.73;1.35;;;9.60;99.90;;;;;;5090312;28;20097;-95
2023/11/02 04:17:36;;;;;;;2.20;1.10;;;9.70;99.90;;;;;;5091986;28;20035;-96
2023/11/02 04:20:03;;;;;;;1.10;0.95;;;9.70;99.90;;;;;;5105300;28;20077;-93
2023/11/02 04:22:29;;;;;;;0.82;0.82;;;9.80;99.90;;;;;;5086477;28;20461;-95
2023/11/02 04:24:55;;;;;;;2.38;1.42;;;9.80;99.90;;;;;;5108223;28;20028;-94
2023/11/02 04:27:21;;;;;;;1.30;1.10;;;9.80;99.90;;;;;;5104656;28;20016;-95
2023/11/02 04:29:46;;;;;;;0.90;0.65;;;9.90;99.90;;;;;;5087001;28;20009;-96
2023/11/02 04:32:15;;;;;;;2.08;1.67;;;9.90;99.90;;;;;;5112297;28;20027;-95
2023/11/02 04:34:41;;;;;;;1.80;0.98;;;9.90;99.90;;;;;;5109661;28;20020;-95
2023/11/02 04:37:25;;;;;;;1.80;1.25;;;9.90;99.90;;;;;;5110923;28;20056;-95
2023/11/02 04:39:50;;;;;;;1.13;1.13;;;9.90;99.90;;;;;;5108074;28;20059;-96
2023/11/02 04:42:25;;;;;;;1.17;0.70;;;9.90;99.90;;;;;;5091569;28;20016;-95
2023/11/02 04:44:54;;;;;;;1.55;1.25;;;10.00;99.90;;;;;;5107975;28;20107;-95
2023/11/02 04:47:20;;;;;;;1.20;1.02;;;10.00;99.90;;;;;;5097163;28;20043;-94
2023/11/02 04:49:46;;;;;;;1.38;0.77;;;10.00;99.90;;;;;;5104617;28;20013;-96
2023/11/02 04:52:11;;;;;;;1.25;1.15;;;10.00;99.90;;;;;;5098371;23;20080;-93
2023/11/02 04:54:43;;;;;;;1.92;0.90;;;10.00;99.90;;;;;;5095458;28;20020;-94
2023/11/02 04:57:08;;;;;;;1.65;1.10;;;10.00;99.90;;;;;;5087948;28;20036;-94
2023/11/02 04:59:51;;;;;;;1.58;1.48;;;10.00;99.90;;;;;;5047566;28;20025;-93
2023/11/02 05:02:27;;;;;;;1.73;1.35;;;10.00;99.90;;;;;;5006663;28;20061;-93
2023/11/02 05:04:52;;;;;;;1.63;1.20;;;10.00;99.90;;;;;;5030754;28;20036;-94
2023/11/02 05:07:18;;;;;;;1.10;1.00;;;10.00;99.90;;;;;;5046454;28;20030;-93
2023/11/02 05:09:44;;;;;;;1.40;1.20;;;10.00;99.90;;;;;;5051743;28;20499;-95
2023/11/02 05:12:10;;;;;;;1.98;1.23;;;10.00;99.90;;;;;;5027022;28;20022;-94
2023/11/02 05:14:36;;;;;;;0.77;0.77;;;10.00;99.90;;;;;;5032049;28;20010;-94
2023/11/02 05:17:01;;;;;;;1.10;1.05;;;9.90;99.90;;;;;;5039968;28;20448;-95
2023/11/02 05:19:27;;;;;;;1.00;0.90;;;9.90;99.90;;;;;;5044822;28;20472;-93
2023/11/02 05:21:55;;;;;;;1.30;1.02;;;9.90;99.90;;;;;;5027597;28;20101;-93
2023/11/02 05:24:21;;;;;;;1.83;1.20;;;9.80;99.90;;;;;;5025556;28;20495;-92
2023/11/02 05:26:50;;;;;;;1.38;1.23;;;9.80;99.90;;;;;;5021242;28;20022;-93
2023/11/02 05:29:16;;;;;;;2.00;1.58;;;9.80;99.90;;;;;;5028998;28;20026;-93
2023/11/02 05:31:41;;;;;;;2.08;1.70;;;9.80;99.90;;;;;;5027114;28;20129;-93
2023/11/02 05:34:07;;;;;;;3.25;1.33;;;9.70;99.90;;;;;;5047029;28;20051;-93
2023/11/02 05:36:33;;;;;;;1.42;1.33;;;9.70;99.90;;;;;;5022595;28;20137;-93
2023/11/02 05:38:59;;;;;;;1.67;1.20;;;9.70;99.90;;;;;;5044927;28;20105;-92
2023/11/02 05:41:25;;;;;;;1.90;1.25;;;9.70;99.90;;;;;;5031327;28;20105;-91
2023/11/02 05:43:53;;;;;;;1.58;1.48;;;9.70;99.90;;;;;;5031248;28;20097;-91
2023/11/02 05:46:19;;;;;;;;;;;9.70;99.90;;;;;;5033169;28;20132;-91
2023/11/02 05:48:49;;;;;;;2.65;1.42;;;9.70;99.90;;;;;;5018244;28;19917;-91
2023/11/02 05:51:15;;;;;;;5.93;4.07;;;9.70;99.90;;;;;;5036355;28;20025;-95
2023/11/02 05:53:41;;;;;;;6.53;4.38;;;9.70;99.90;;;;;;5021944;28;20061;-91
2023/11/02 05:56:07;;;;;;;5.13;2.97;;;9.70;99.90;;;;;;5033719;28;20032;-91
2023/11/02 05:58:36;;;;;;;2.92;1.83;;;9.70;99.90;;;;;;5031567;28;20022;-91
2023/11/02 06:01:05;;;;;;;2.65;1.45;;;9.70;99.90;;;;;;5033189;28;20047;-91
2023/11/02 06:03:30;;;;;;;3.17;1.98;;;9.70;99.90;;;;;;5026249;28;20084;-93
2023/11/02 06:05:56;;;;;;;2.00;1.70;;;9.70;99.90;;;;;;5031008;28;20029;-91
2023/11/02 06:08:22;;;;;;;4.50;2.38;;;9.80;99.90;;;;;;5032249;28;20049;-92
2023/11/02 06:10:48;;;;;;;1.95;1.73;;;9.80;99.90;;;;;;5013632;28;20472;-94
2023/11/02 06:13:17;;;;;;;2.35;1.80;;;9.70;99.90;;;;;;5033989;28;20049;-90
2023/11/02 06:15:45;;;;;;;1.52;1.35;;;9.70;99.90;;;;;;5029202;28;20034;-92
2023/11/02 06:18:10;;;;;;;2.53;1.65;;;9.70;99.90;;;;;;5027303;28;20067;-92
2023/11/02 06:20:36;;;;;;;2.47;1.60;;;9.80;99.90;;;;;;5015957;28;20109;-92
2023/11/02 06:23:03;;;;;;;4.47;1.10;;;9.80;99.90;;;;;;5036256;28;20029;-92
2023/11/02 06:25:29;;;;;;;1.83;1.63;;;9.80;99.90;;;;;;5030097;28;20052;-91
2023/11/02 06:27:55;;;;;;;1.73;1.35;;;9.90;99.90;;;;;;5041303;28;20033;-92
2023/11/02 06:30:28;;;;;;;2.00;1.63;;;9.80;99.90;;;;;;5035370;28;20049;-93
2023/11/02 06:32:57;;;;;;;2.47;2.35;;;9.80;99.90;;;;;;5035010;28;20075;-91
2023/11/02 06:35:26;;;;;;;2.17;2.00;;;9.90;99.90;;;;;;5013257;28;20022;-91
2023/11/02 06:37:59;;;;;;;1.65;1.55;;;9.80;99.90;;;;;;5009560;28;20037;-92
2023/11/02 06:40:28;;;;;;;1.77;1.38;;;9.90;99.90;;;;;;5009299;28;20026;-95
2023/11/02 06:42:58;;;;;;;2.45;1.88;;;9.90;99.90;;;;;;5032108;28;20151;-94
2023/11/02 06:45:27;;;;;;;3.05;1.63;;;9.90;99.90;;;;;;5035878;28;20064;-90
2023/11/02 06:47:53;;;;;;;1.88;1.50;;;9.90;99.90;;;;;;5030256;28;20014;-93
2023/11/02 06:50:19;;;;;;;1.77;1.60;;;9.90;99.90;;;;;;5034374;28;20052;-92
2023/11/02 06:52:44;;;;;;;1.95;1.60;;;10.00;99.90;;;;;;5040222;28;20088;-92
2023/11/02 06:55:10;;;;;;;3.15;1.83;;;10.00;99.90;;;;;;5031001;28;20014;-92
2023/11/02 06:57:36;;;;;;;2.08;1.60;;;10.00;99.90;;;;;;5010580;28;20029;-92
2023/11/02 07:00:05;;;;;;;3.40;2.88;;;10.00;99.90;;;;;;5035777;28;20209;-92
2023/11/02 07:02:32;;;;;;;3.95;2.95;;;10.00;99.90;;;;;;5017563;28;20083;-92
2023/11/02 07:04:58;;;;;;;5.78;2.97;;;10.00;99.90;;;;;;5032434;28;20029;-91
2023/11/02 07:07:24;;;;;;;3.00;2.55;;;10.00;99.90;;;;;;5014549;28;20511;-93
2023/11/02 07:09:53;;;;;;;4.43;2.63;;;10.00;99.90;;;;;;5037696;28;20006;-94
2023/11/02 07:12:25;;;;;;;2.85;2.10;;;10.00;99.90;;;;;;5027556;28;20110;-92
2023/11/02 07:14:51;;;;;;;2.97;2.28;;;10.00;99.90;;;;;;5026260;28;20021;-93
2023/11/02 07:17:21;;;;;;;2.63;2.33;;;10.10;99.90;;;;;;5055822;28;20036;-94
2023/11/02 07:19:46;;;;;;;3.63;2.65;;;10.10;99.90;;;;;;5034435;28;20041;-93
2023/11/02 07:22:12;;;;;;;3.45;2.83;;;10.10;99.90;;;;;;5054132;28;20006;-95
2023/11/02 07:24:38;;;;;;;4.10;3.00;;;10.10;99.90;;;;;;5012704;28;20028;-92
2023/11/02 07:27:04;;;;;;;5.70;2.83;;;10.10;99.90;;;;;;5034864;28;20053;-92
2023/11/02 07:29:35;;;;;;;12.50;6.82;;;10.10;99.90;;;;;;5031925;28;20022;-91
2023/11/02 07:32:00;;;;;;;10.30;6.05;;;10.10;99.90;;;;;;5031266;28;20037;-93
2023/11/02 07:34:26;;;;;;;7.78;5.22;;;10.10;99.90;;;;;;5031134;28;20037;-93
2023/11/02 07:36:56;;;;;;;7.43;4.38;;;10.10;99.90;;;;;;5026851;28;20334;-92
2023/11/02 07:39:22;;;;;;;4.10;3.67;;;10.20;99.90;;;;;;5033113;28;20026;-91
2023/11/02 07:41:48;;;;;;;4.00;2.75;;;10.20;99.90;;;;;;5037219;28;20507;-92
2023/11/02 07:44:14;;;;;;;4.13;2.20;;;10.20;99.90;;;;;;5034483;28;20025;-93
2023/11/02 07:46:39;;;;;;;2.75;2.13;;;10.20;99.90;;;;;;5027943;28;20030;-91
2023/11/02 07:49:05;;;;;;;1.67;1.30;;;10.30;99.90;;;;;;5038076;28;20060;-95
2023/11/02 07:51:31;;;;;;;3.63;1.67;;;10.20;99.90;;;;;;5041002;28;20116;-94
2023/11/02 07:53:56;;;;;;;1.73;1.58;;;10.20;99.90;;;;;;5024425;28;20040;-92
2023/11/02 07:56:22;;;;;;;2.05;1.50;;;10.20;99.90;;;;;;5018319;28;20113;-94
2023/11/02 07:58:47;;;;;;;3.40;1.65;;;10.20;99.90;;;;;;5018913;28;20528;-93
2023/11/02 08:01:16;;;;;;;3.20;1.25;;;10.20;99.90;;;;;;5014870;28;20030;-92
2023/11/02 08:03:45;;;;;;;3.60;1.92;;;10.20;99.90;;;;;;5001177;28;20038;-91
2023/11/02 08:06:20;;;;;;;2.08;1.20;;;10.20;99.90;;;;;;5038482;28;20030;-91
2023/11/02 08:08:46;;;;;;;2.70;1.52;;;10.20;99.90;;;;;;5020179;28;20097;-91
2023/11/02 08:11:22;;;;;;;2.90;2.33;;;10.20;99.90;;;;;;5032425;28;20044;-93
2023/11/02 08:13:50;;;;;;;2.53;2.10;;;10.20;99.90;;;;;;5015635;28;20101;-92
2023/11/02 08:16:22;;;;;;;3.10;1.40;;;10.20;99.90;;;;;;5021435;28;20013;-92
2023/11/02 08:18:48;;;;;;;1.85;1.48;;;10.30;99.90;;;;;;5016517;28;20037;-93
2023/11/02 08:21:13;;;;;;;1.73;1.50;;;10.30;99.90;;;;;;5012696;28;20030;-92
2023/11/02 08:23:41;;;;;;;2.28;1.38;;;10.40;99.90;;;;;;5022754;28;20109;-91
2023/11/02 08:26:11;;;;;;;1.60;0.82;;;10.40;99.90;;;;;;5017395;28;20022;-93
2023/11/02 08:28:42;;;;;;;1.67;1.05;;;10.50;99.90;;;;;;5005197;28;20057;-89
2023/11/02 08:31:16;;;;;;;1.73;1.20;;;10.50;99.90;;;;;;5017798;28;20045;-90
2023/11/02 08:33:42;;;;;;;1.58;1.38;;;10.50;99.90;;;;;;5012675;28;20030;-92
2023/11/02 08:36:13;;;;;;;1.48;1.05;;;10.60;99.90;;;;;;5009245;28;20124;-91
2023/11/02 08:38:42;;;;;;;1.73;1.17;;;10.70;99.90;;;;;;5007008;28;20101;-92
2023/11/02 08:41:20;;;;;;;1.40;1.13;;;10.80;99.90;;;;;;5006007;28;20046;-91
2023/11/02 08:43:51;;;;;;;1.08;0.95;;;10.80;99.90;;;;;;4995749;28;20143;-91
2023/11/02 08:46:27;;;;;;;1.52;1.42;;;10.90;99.90;;;;;;4994935;28;20228;-92
2023/11/02 08:48:55;;;;;;;1.40;0.80;;;10.90;99.90;;;;;;4997035;28;20030;-92
2023/11/02 08:51:23;;;;;;;2.55;1.20;;;11.00;99.90;;;;;;4999319;28;20098;-91
2023/11/02 08:53:49;;;;;;;3.00;1.42;;;11.00;99.90;;;;;;5012134;28;20056;-91
2023/11/02 08:56:15;;;;;;;2.05;1.95;;;11.10;99.90;;;;;;5010965;28;20424;-91
2023/11/02 08:58:50;;;;;;;1.15;1.02;;;11.20;99.90;;;;;;5013785;28;20717;-92
2023/11/02 09:01:22;;;;;;;1.63;1.52;;;11.30;99.90;;;;;;5013898;28;20412;-90
2023/11/02 09:03:50;;;;;;;1.48;0.98;;;11.40;99.90;;;;;;5012204;28;20119;-90
2023/11/02 09:06:16;;;;;;;1.88;1.15;;;11.70;99.90;;;;;;5010740;28;20041;-92
2023/11/02 09:08:44;;;;;;;3.17;1.00;;;11.80;99.90;;;;;;5012686;28;20033;-93
2023/11/02 09:11:10;;;;;;;1.45;1.17;;;12.00;99.90;;;;;;5019338;28;20030;-91
2023/11/02 09:13:39;;;;;;;1.15;1.05;;;12.00;99.90;;;;;;5014152;28;20022;-91
2023/11/02 09:16:09;;;;;;;2.17;1.27;;;12.00;99.90;;;;;;5011088;28;20044;-92
2023/11/02 09:18:35;;;;;;;0.70;0.70;;;12.00;99.90;;;;;;5016969;28;20174;-91
2023/11/02 09:21:04;;;;;;;1.40;0.80;;;12.10;99.90;;;;;;5016657;28;20030;-94
2023/11/02 09:23:32;;;;;;;3.13;1.30;;;12.10;99.90;;;;;;5038841;28;20070;-90
2023/11/02 09:25:58;;;;;;;0.90;0.70;;;12.00;99.90;;;;;;5010619;28;20056;-92
2023/11/02 09:28:24;;;;;;;0.88;0.68;;;12.00;99.90;;;;;;5016432;28;20030;-92
2023/11/02 09:30:51;;;;;;;1.23;0.98;;;12.00;99.90;;;;;;5012418;28;20045;-91
2023/11/02 09:33:18;;;;;;;1.38;1.27;;;12.10;99.90;;;;;;5011281;28;20057;-93
2023/11/02 09:35:44;;;;;;;1.33;0.70;;;12.20;99.90;;;;;;5013817;28;20125;-92
2023/11/02 09:38:10;;;;;;;0.95;0.93;;;12.10;99.90;;;;;;5011124;28;20188;-91
2023/11/02 09:40:37;;;;;;;2.67;0.70;;;12.20;99.90;;;;;;5004874;28;20420;-93
2023/11/02 09:43:04;;;;;;;4.57;0.88;;;12.30;99.90;;;;;;5000673;28;20135;-93
2023/11/02 09:45:30;;;;;;;;;;;12.40;99.90;;;;;;5015295;28;20029;-92
2023/11/02 09:47:59;;;;;;;2.50;1.02;;;12.30;99.90;;;;;;5011513;28;19918;-93
2023/11/02 09:50:25;;;;;;;0.50;0.50;;;12.30;99.90;;;;;;5010843;28;20041;-93
2023/11/02 09:52:53;;;;;;;0.70;0.70;;;12.40;99.90;;;;;;5012023;28;20048;-93
2023/11/02 09:55:20;;;;;;;1.48;0.90;;;12.40;99.90;;;;;;5035863;28;20316;-94
2023/11/02 09:57:49;;;;;;;0.95;0.88;;;12.40;99.90;;;;;;5002265;28;20038;-94
2023/11/02 10:00:17;;;;;;;1.38;0.73;;;12.40;99.90;;;;;;5002826;28;20030;-94
2023/11/02 10:02:52;;;;;;;1.35;1.02;;;12.40;99.90;;;;;;5025907;28;20088;-92
2023/11/02 10:05:20;;;;;;;1.27;0.95;;;12.40;99.90;;;;;;5013734;28;20034;-94
2023/11/02 10:07:49;;;;;;;1.95;0.90;;;12.50;99.90;;;;;;5017462;28;20044;-93
2023/11/02 10:10:14;;;;;;;2.58;1.70;;;12.60;99.90;;;;;;5015021;28;20065;-94
2023/11/02 10:12:43;;;;;;;1.70;1.05;;;12.60;99.40;;;;;;5014566;28;20026;-91
2023/11/02 10:15:11;;;;;;;2.28;0.85;;;12.70;98.80;;;;;;5011222;28;20306;-94
2023/11/02 10:17:40;;;;;;;1.15;0.80;;;12.70;96.90;;;;;;4996072;28;20049;-94
2023/11/02 10:20:11;;;;;;;1.98;0.68;;;12.80;97.10;;;;;;5014561;28;20056;-93
2023/11/02 10:22:36;;;;;;;2.17;0.45;;;12.80;96.00;;;;;;5012715;28;20423;-93
2023/11/02 10:25:03;;;;;;;0.73;0.63;;;12.90;95.30;;;;;;5012877;28;20126;-96
2023/11/02 10:27:33;;;;;;;1.45;1.38;;;12.90;93.30;;;;;;5001418;28;20018;-93
2023/11/02 10:29:59;;;;;;;0.55;0.55;;;13.00;92.20;;;;;;5012342;28;20022;-94
2023/11/02 10:32:34;;;;;;;1.85;0.90;;;13.00;94.10;;;;;;5010442;28;20034;-94
2023/11/02 10:35:00;;;;;;;2.00;0.77;;;12.90;95.00;;;;;;5002128;28;20034;-94
2023/11/02 10:37:30;;;;;;;1.33;0.80;;;12.90;95.50;;;;;;5016416;28;20033;-93
2023/11/02 10:39:56;;;;;;;1.13;0.77;;;12.90;93.80;;;;;;5014686;28;21241;-93
2023/11/02 10:42:25;;;;;;;1.70;0.60;;;12.90;91.80;;;;;;5010750;28;20475;-94
2023/11/02 10:44:51;;;;;;;1.27;0.70;;;12.90;92.50;;;;;;5017417;28;20049;-94
2023/11/02 10:47:24;;;;;;;2.40;0.90;;;13.00;89.50;;;;;;5022649;28;20036;-92
2023/11/02 10:49:53;;;;;;;0.88;0.80;;;13.20;86.10;;;;;;5020480;28;20022;-94
2023/11/02 10:52:29;;;;;;;1.58;0.88;;;13.30;85.30;;;;;;5020572;28;20031;-93
2023/11/02 10:55:03;;;;;;;1.20;1.10;;;13.20;84.70;;;;;;5007288;28;20041;-92
2023/11/02 10:57:30;;;;;;;1.80;0.68;;;13.30;85.30;;;;;;5013837;28;20107;-93
2023/11/02 11:00:07;;;;;;;1.48;0.65;;;13.30;83.20;;;;;;5011140;28;20768;-93
2023/11/02 11:02:35;;;;;;;8.15;0.73;;;13.40;83.80;;;;;;5019645;28;20079;-94
2023/11/02 11:05:05;;;;;;;1.23;1.00;;;13.30;82.90;;;;;;5018809;28;20034;-93
2023/11/02 11:07:35;;;;;;;1.48;0.50;;;13.40;81.80;;;;;;5020413;28;20026;-94
2023/11/02 11:10:05;;;;;;;1.75;0.85;;;13.40;81.00;;;;;;5023634;28;20045;-93
2023/11/02 11:12:34;;;;;;;1.45;1.35;;;13.40;81.20;;;;;;5032248;28;20021;-94
2023/11/02 11:15:02;;;;;;;2.47;0.93;;;13.40;81.00;;;;;;5018831;28;20022;-93
2023/11/02 11:17:31;;;;;;;0.90;0.70;;;13.40;80.80;;;;;;5029244;28;20029;-95
2023/11/02 11:19:57;;;;;;;1.15;0.90;;;13.40;82.20;;;;;;5039679;28;20017;-94
2023/11/02 11:22:32;;;;;;;1.45;0.70;;;13.40;80.90;;;;;;5039257;28;20116;-94
2023/11/02 11:25:04;;;;;;;1.00;0.82;;;13.40;81.50;;;;;;5026313;28;20026;-91
2023/11/02 11:27:35;;;;;;;2.85;1.30;;;13.30;81.40;;;;;;5022704;28;20032;-90
2023/11/02 11:30:03;;;;;;;1.40;0.57;;;13.20;81.40;;;;;;5021234;28;20032;-90
2023/11/02 11:32:37;;;;;;;1.83;0.80;;;13.20;80.50;;;;;;5018404;28;20041;-91
2023/11/02 11:35:12;;;;;;;1.70;0.85;;;13.20;82.00;;;;;;5036571;28;20028;-91
2023/11/02 11:38:12;;;;;;;1.00;0.90;;;13.30;80.90;;;;;;5027587;28;20042;-91
2023/11/02 11:40:31;;;;;;;;;;;13.20;81.40;;;;;;5031116;28;20037;-94
2023/11/02 11:43:27;;;;;;;0.75;0.70;;;13.10;80.00;;;;;;5033940;28;19905;-94
2023/11/02 11:46:01;;;;;;;2.42;0.82;;;13.20;80.60;;;;;;5024235;28;20033;-92
2023/11/02 11:48:34;;;;;;;;;;;13.20;81.20;;;;;;5024260;28;20046;-93
2023/11/02 11:51:04;;;;;;;1.35;0.80;;;13.20;78.20;;;;;;5009043;28;19921;-91
2023/11/02 11:53:29;;;;;;;1.15;1.10;;;13.30;76.80;;;;;;5027438;28;20028;-93
2023/11/02 11:55:56;;;;;;;3.13;0.95;;;13.40;76.80;;;;;;5040910;28;20504;-92
2023/11/02 11:58:46;;;;;;;0.77;0.60;;;13.30;77.20;;;;;;5025973;28;20645;-91
2023/11/02 12:01:13;;;;;;;1.58;0.55;;;13.30;77.70;;;;;;5023783;28;20021;-91
2023/11/02 12:03:39;;;;;;;1.48;0.80;;;13.30;78.00;;;;;;5021459;28;20228;-92
2023/11/02 12:06:07;;;;;;;0.82;0.43;;;13.30;78.10;;;;;;5039423;28;20074;-91
2023/11/02 12:08:46;;;;;;;1.05;0.85;;;13.30;78.30;;;;;;5012099;28;20029;-92
2023/11/02 12:11:13;;;;;;;1.10;0.40;;;13.20;78.20;;;;;;5014469;28;20021;-91
2023/11/02 12:13:57;;;;;;;1.17;0.57;;;13.20;78.50;;;;;;5030653;28;20028;-89
2023/11/02 12:16:31;;;;;;;2.40;1.02;;;13.30;78.70;;;;;;5014596;28;20033;-91
2023/11/02 12:18:56;;;;;;;1.38;1.15;;;13.20;78.90;;;;;;5035357;28;20029;-90
2023/11/02 12:21:24;;;;;;;0.85;0.70;;;13.20;77.50;;;;;;5034899;28;20116;-93
2023/11/02 12:23:54;;;;;;;1.00;0.90;;;13.20;76.30;;;;;;5036256;28;20040;-95
2023/11/02 12:26:21;;;;;;;2.05;0.80;;;13.20;77.80;;;;;;5019025;28;20428;-92
2023/11/02 12:29:06;;;;;;;1.15;0.93;;;13.30;74.70;;;;;;5041244;28;20042;-93
2023/11/02 12:31:44;;;;;;;1.70;0.88;;;13.20;75.10;;;;;;5010249;28;20032;-93
2023/11/02 12:34:12;;;;;;;1.33;0.65;;;13.20;76.60;;;;;;5008382;28;20112;-91
2023/11/02 12:36:44;;;;;;;2.70;0.90;;;13.20;76.10;;;;;;5019807;28;20025;-90
2023/11/02 12:39:21;;;;;;;1.70;1.05;;;13.10;77.30;;;;;;5026920;28;20038;-92
2023/11/02 12:41:53;;;;;;;1.30;1.23;;;13.10;76.00;;;;;;5035189;28;20022;-92
2023/11/02 12:44:23;;;;;;;0.80;0.70;;;13.10;77.20;;;;;;5015496;28;20025;-93
2023/11/02 12:46:52;;;;;;;1.58;0.77;;;13.10;76.30;;;;;;5038606;28;20100;-92
2023/11/02 12:49:22;;;;;;;0.82;0.70;;;13.10;76.40;;;;;;5033766;28;20033;-92
2023/11/02 12:51:59;;;;;;;1.35;0.88;;;13.10;76.60;;;;;;5029545;28;20022;-93
2023/11/02 12:54:28;;;;;;;1.73;1.10;;;13.10;76.00;;;;;;5025487;28;20089;-92
2023/11/02 12:56:58;;;;;;;1.73;0.90;;;13.10;76.20;;;;;;5018459;28;20535;-93
2023/11/02 12:59:24;;;;;;;1.88;0.95;;;13.10;75.20;;;;;;5030084;28;20033;-92
2023/11/02 13:01:59;;;;;;;2.17;1.35;;;13.10;77.10;;;;;;5025107;28;20060;-92
2023/11/02 13:04:46;;;;;;;1.00;0.77;;;13.00;75.80;;;;;;5032611;28;20590;-90
2023/11/02 13:07:25;;;;;;;7.53;1.23;;;13.00;76.30;;;;;;5019985;28;20037;-92
2023/11/02 13:10:10;;;;;;;1.05;0.73;;;13.00;77.70;;;;;;5036605;28;20017;-92
2023/11/02 13:12:40;;;;;;;2.88;0.70;;;12.90;78.30;;;;;;5020585;28;20018;-91
2023/11/02 13:15:11;;;;;;;2.15;0.85;;;12.90;76.90;;;;;;5023293;28;20017;-92